createdAt,value
2018-06-30T00:00:20.925Z,21.05
2018-06-30T00:01:20.921Z,20.92
2018-06-30T00:02:20.918Z,20.95
2018-06-30T00:03:20.931Z,20.92
2018-06-30T00:04:20.926Z,20.90
2018-06-30T00:05:20.942Z,20.97
2018-06-30T00:06:20.930Z,20.84
2018-06-30T00:07:20.940Z,20.90
2018-06-30T00:08:20.937Z,20.82
2018-06-30T00:09:20.943Z,20.85
2018-06-30T00:10:21.007Z,20.84
2018-06-30T00:11:20.961Z,20.72
2018-06-30T00:12:20.951Z,20.75
2018-06-30T00:13:20.953Z,20.72
2018-06-30T00:14:20.961Z,20.66
2018-06-30T00:15:20.965Z,20.69
2018-06-30T00:16:20.967Z,20.59
2018-06-30T00:17:20.963Z,20.47
2018-06-30T00:18:20.967Z,20.47
2018-06-30T00:19:20.971Z,20.43
2018-06-30T00:20:20.986Z,20.43
2018-06-30T00:21:20.975Z,20.47
2018-06-30T00:22:20.977Z,20.41
2018-06-30T00:23:20.978Z,20.44
2018-06-30T00:24:20.997Z,20.31
2018-06-30T00:25:22.078Z,20.31
2018-06-30T00:26:22.048Z,20.32
2018-06-30T00:27:22.088Z,20.36
2018-06-30T00:28:22.056Z,20.36
2018-06-30T00:29:21.107Z,20.21
2018-06-30T00:30:22.133Z,20.21
2018-06-30T00:31:21.002Z,20.21
2018-06-30T00:32:21.003Z,20.21
2018-06-30T00:33:21.006Z,20.25
2018-06-30T00:34:21.010Z,20.22
2018-06-30T00:35:21.012Z,20.21
2018-06-30T00:36:21.443Z,20.24
2018-06-30T00:37:21.019Z,20.21
2018-06-30T00:38:21.150Z,20.22
2018-06-30T00:39:21.021Z,20.19
2018-06-30T00:40:21.024Z,20.14
2018-06-30T00:41:21.030Z,20.11
2018-06-30T00:42:21.039Z,20.09
2018-06-30T00:43:21.037Z,20.13
2018-06-30T00:44:21.034Z,20.07
2018-06-30T00:45:21.055Z,20.03
2018-06-30T00:46:21.045Z,20.11
2018-06-30T00:47:21.042Z,20.03
2018-06-30T00:48:21.046Z,20.07
2018-06-30T00:49:21.049Z,20.02
2018-06-30T00:50:21.047Z,19.92
2018-06-30T00:51:21.054Z,19.92
2018-06-30T00:52:21.057Z,19.88
2018-06-30T00:53:21.055Z,19.99
2018-06-30T00:54:21.058Z,19.92
2018-06-30T00:55:21.062Z,19.82
2018-06-30T00:56:21.063Z,19.79
2018-06-30T00:57:21.066Z,19.79
2018-06-30T00:58:21.067Z,19.85
2018-06-30T00:59:21.070Z,19.85
2018-06-30T01:00:21.102Z,19.85
2018-06-30T01:01:21.081Z,19.91
2018-06-30T01:02:21.077Z,19.94
2018-06-30T01:03:21.080Z,19.86
2018-06-30T01:04:21.083Z,19.89
2018-06-30T01:05:21.083Z,19.88
2018-06-30T01:06:21.086Z,19.91
2018-06-30T01:07:21.089Z,19.85
2018-06-30T01:08:21.091Z,19.85
2018-06-30T01:09:21.095Z,19.88
2018-06-30T01:10:21.097Z,19.92
2018-06-30T01:11:21.099Z,19.88
2018-06-30T01:12:21.111Z,19.88
2018-06-30T01:13:21.112Z,19.84
2018-06-30T01:14:21.106Z,19.79
2018-06-30T01:15:21.123Z,19.73
2018-06-30T01:16:21.115Z,19.77
2018-06-30T01:17:21.114Z,19.73
2018-06-30T01:18:21.115Z,19.67
2018-06-30T01:19:21.118Z,19.51
2018-06-30T01:20:21.120Z,19.59
2018-06-30T01:21:21.131Z,19.58
2018-06-30T01:22:21.124Z,19.56
2018-06-30T01:23:21.127Z,19.55
2018-06-30T01:24:21.129Z,19.67
2018-06-30T01:25:21.132Z,19.59
2018-06-30T01:26:21.132Z,19.55
2018-06-30T01:27:21.136Z,19.56
2018-06-30T01:28:21.142Z,19.54
2018-06-30T01:29:21.140Z,19.58
2018-06-30T01:30:21.142Z,19.58
2018-06-30T01:31:21.144Z,19.58
2018-06-30T01:32:21.153Z,19.56
2018-06-30T01:33:21.147Z,19.55
2018-06-30T01:34:21.148Z,19.55
2018-06-30T01:35:21.156Z,19.49
2018-06-30T01:36:21.155Z,19.48
2018-06-30T01:37:21.158Z,19.44
2018-06-30T01:38:21.160Z,19.47
2018-06-30T01:39:21.160Z,19.40
2018-06-30T01:40:21.165Z,19.39
2018-06-30T01:41:21.173Z,19.34
2018-06-30T01:42:21.168Z,19.37
2018-06-30T01:43:21.175Z,19.33
2018-06-30T01:44:21.171Z,19.36
2018-06-30T01:45:21.174Z,19.34
2018-06-30T01:46:21.174Z,19.31
2018-06-30T01:47:21.180Z,19.39
2018-06-30T01:48:21.180Z,19.39
2018-06-30T01:49:21.204Z,19.31
2018-06-30T01:50:21.186Z,19.37
2018-06-30T01:51:21.187Z,19.31
2018-06-30T01:52:21.193Z,19.33
2018-06-30T01:53:21.189Z,19.37
2018-06-30T01:54:21.191Z,19.37
2018-06-30T01:55:21.194Z,19.40
2018-06-30T01:56:21.199Z,19.33
2018-06-30T01:57:21.202Z,19.21
2018-06-30T01:58:21.203Z,19.29
2018-06-30T01:59:21.203Z,19.19
2018-06-30T02:00:21.205Z,19.31
2018-06-30T02:01:21.206Z,19.21
2018-06-30T02:02:21.211Z,19.26
2018-06-30T02:03:21.209Z,19.21
2018-06-30T02:04:21.214Z,19.19
2018-06-30T02:05:21.214Z,19.16
2018-06-30T02:06:21.214Z,19.19
2018-06-30T02:07:21.218Z,19.12
2018-06-30T02:08:21.225Z,19.02
2018-06-30T02:09:21.222Z,19.21
2018-06-30T02:10:21.223Z,19.11
2018-06-30T02:11:21.230Z,19.08
2018-06-30T02:12:21.228Z,19.14
2018-06-30T02:13:21.233Z,19.12
2018-06-30T02:14:21.231Z,19.02
2018-06-30T02:15:21.234Z,19.09
2018-06-30T02:16:21.237Z,19.14
2018-06-30T02:17:21.242Z,19.12
2018-06-30T02:18:21.240Z,19.00
2018-06-30T02:19:21.257Z,19.12
2018-06-30T02:20:21.246Z,19.11
2018-06-30T02:21:21.252Z,19.08
2018-06-30T02:22:21.248Z,19.07
2018-06-30T02:23:21.249Z,19.12
2018-06-30T02:24:21.254Z,19.04
2018-06-30T02:25:22.550Z,18.99
2018-06-30T02:26:21.258Z,18.95
2018-06-30T02:27:21.262Z,18.95
2018-06-30T02:28:21.258Z,18.80
2018-06-30T02:29:21.262Z,18.77
2018-06-30T02:30:21.261Z,18.78
2018-06-30T02:31:21.263Z,18.81
2018-06-30T02:32:21.266Z,18.59
2018-06-30T02:33:21.271Z,18.59
2018-06-30T02:34:21.268Z,18.49
2018-06-30T02:35:21.294Z,18.50
2018-06-30T02:36:21.276Z,18.43
2018-06-30T02:37:21.276Z,18.41
2018-06-30T02:38:21.277Z,18.33
2018-06-30T02:39:21.296Z,18.33
2018-06-30T02:40:21.278Z,18.26
2018-06-30T02:41:21.280Z,18.23
2018-06-30T02:42:21.281Z,18.29
2018-06-30T02:43:21.282Z,18.23
2018-06-30T02:44:21.288Z,18.20
2018-06-30T02:45:21.288Z,18.26
2018-06-30T02:46:21.288Z,18.29
2018-06-30T02:47:21.288Z,18.28
2018-06-30T02:48:21.297Z,18.28
2018-06-30T02:49:21.292Z,18.22
2018-06-30T02:50:21.297Z,18.16
2018-06-30T02:51:21.295Z,18.11
2018-06-30T02:52:21.295Z,18.11
2018-06-30T02:53:21.300Z,17.97
2018-06-30T02:54:21.301Z,18.03
2018-06-30T02:55:21.298Z,18.05
2018-06-30T02:56:21.306Z,18.00
2018-06-30T02:57:21.302Z,18.05
2018-06-30T02:58:21.302Z,17.86
2018-06-30T02:59:21.302Z,17.86
2018-06-30T03:00:21.306Z,17.80
2018-06-30T03:01:21.305Z,17.80
2018-06-30T03:02:21.306Z,17.76
2018-06-30T03:03:21.308Z,17.76
2018-06-30T03:04:21.311Z,17.72
2018-06-30T03:05:21.310Z,17.65
2018-06-30T03:06:21.314Z,17.67
2018-06-30T03:07:21.313Z,17.65
2018-06-30T03:08:21.311Z,17.65
2018-06-30T03:09:21.313Z,17.63
2018-06-30T03:10:21.314Z,17.59
2018-06-30T03:11:21.318Z,17.59
2018-06-30T03:12:21.316Z,17.63
2018-06-30T03:13:21.322Z,17.54
2018-06-30T03:14:21.373Z,17.65
2018-06-30T03:15:21.319Z,17.65
2018-06-30T03:16:21.318Z,17.63
2018-06-30T03:17:21.321Z,17.49
2018-06-30T03:18:36.158Z,17.46
2018-06-30T03:19:21.321Z,17.48
2018-06-30T03:20:21.322Z,17.63
2018-06-30T03:21:21.328Z,17.51
2018-06-30T03:22:21.323Z,17.51
2018-06-30T03:23:21.324Z,17.46
2018-06-30T03:24:21.324Z,17.48
2018-06-30T03:25:21.325Z,17.39
2018-06-30T03:26:21.325Z,17.39
2018-06-30T03:27:21.328Z,17.34
2018-06-30T03:28:21.330Z,17.39
2018-06-30T03:29:21.328Z,17.41
2018-06-30T03:30:21.329Z,17.41
2018-06-30T03:31:21.335Z,17.41
2018-06-30T03:32:21.331Z,17.38
2018-06-30T03:33:21.330Z,17.36
2018-06-30T03:34:21.331Z,17.56
2018-06-30T03:35:21.331Z,17.56
2018-06-30T03:36:21.334Z,17.51
2018-06-30T03:37:21.334Z,17.49
2018-06-30T03:38:21.333Z,17.46
2018-06-30T03:39:21.335Z,17.52
2018-06-30T03:40:21.335Z,17.48
2018-06-30T03:41:21.340Z,17.49
2018-06-30T03:42:21.336Z,17.49
2018-06-30T03:43:21.338Z,17.48
2018-06-30T03:44:21.338Z,17.39
2018-06-30T03:45:21.341Z,17.34
2018-06-30T03:46:21.392Z,17.36
2018-06-30T03:47:21.341Z,17.36
2018-06-30T03:48:21.350Z,17.44
2018-06-30T03:49:21.341Z,17.39
2018-06-30T03:50:21.342Z,17.48
2018-06-30T03:51:21.344Z,17.39
2018-06-30T03:52:21.343Z,17.38
2018-06-30T03:53:21.344Z,17.36
2018-06-30T03:54:21.344Z,17.27
2018-06-30T03:55:21.345Z,17.22
2018-06-30T03:56:21.345Z,17.27
2018-06-30T03:57:21.346Z,17.29
2018-06-30T03:58:21.346Z,17.27
2018-06-30T03:59:21.347Z,17.26
2018-06-30T04:00:21.351Z,17.30
2018-06-30T04:01:21.351Z,17.30
2018-06-30T04:02:21.348Z,17.29
2018-06-30T04:03:21.348Z,17.29
2018-06-30T04:04:21.350Z,17.26
2018-06-30T04:05:21.351Z,17.26
2018-06-30T04:06:21.352Z,17.22
2018-06-30T04:07:21.352Z,17.19
2018-06-30T04:08:21.359Z,17.29
2018-06-30T04:09:21.356Z,17.19
2018-06-30T04:10:21.354Z,17.19
2018-06-30T04:11:21.368Z,17.06
2018-06-30T04:12:21.355Z,17.06
2018-06-30T04:13:21.355Z,17.14
2018-06-30T04:14:21.355Z,17.02
2018-06-30T04:15:21.371Z,17.05
2018-06-30T04:16:21.356Z,17.08
2018-06-30T04:17:21.360Z,17.11
2018-06-30T04:18:21.358Z,17.16
2018-06-30T04:19:21.356Z,17.26
2018-06-30T04:20:21.359Z,17.27
2018-06-30T04:21:21.359Z,17.30
2018-06-30T04:22:21.358Z,17.31
2018-06-30T04:23:21.358Z,17.38
2018-06-30T04:24:21.360Z,17.41
2018-06-30T04:25:21.360Z,17.46
2018-06-30T04:26:21.361Z,17.45
2018-06-30T04:27:21.361Z,17.57
2018-06-30T04:28:21.362Z,17.46
2018-06-30T04:29:21.362Z,17.46
2018-06-30T04:30:21.364Z,17.38
2018-06-30T04:31:21.373Z,17.29
2018-06-30T04:32:21.365Z,17.20
2018-06-30T04:33:21.366Z,17.20
2018-06-30T04:34:21.368Z,17.14
2018-06-30T04:35:21.373Z,17.11
2018-06-30T04:36:21.414Z,17.01
2018-06-30T04:37:21.368Z,16.99
2018-06-30T04:38:21.368Z,17.06
2018-06-30T04:39:21.368Z,17.02
2018-06-30T04:40:21.373Z,17.02
2018-06-30T04:41:21.372Z,16.99
2018-06-30T04:42:21.372Z,16.96
2018-06-30T04:43:21.371Z,16.99
2018-06-30T04:44:21.371Z,16.97
2018-06-30T04:45:21.372Z,17.01
2018-06-30T04:46:21.371Z,16.91
2018-06-30T04:47:21.372Z,16.94
2018-06-30T04:48:21.375Z,16.97
2018-06-30T04:49:21.372Z,16.99
2018-06-30T04:50:21.379Z,17.01
2018-06-30T04:51:21.377Z,17.11
2018-06-30T04:52:21.374Z,17.06
2018-06-30T04:53:21.374Z,17.16
2018-06-30T04:54:21.382Z,17.14
2018-06-30T04:55:21.375Z,17.09
2018-06-30T04:56:21.375Z,17.22
2018-06-30T04:57:21.377Z,17.14
2018-06-30T04:58:21.375Z,17.08
2018-06-30T04:59:21.376Z,17.06
2018-06-30T05:00:21.377Z,17.08
2018-06-30T05:01:21.377Z,17.16
2018-06-30T05:02:21.381Z,17.08
2018-06-30T05:03:21.377Z,17.08
2018-06-30T05:04:21.380Z,16.99
2018-06-30T05:05:21.379Z,17.08
2018-06-30T05:06:21.386Z,17.01
2018-06-30T05:07:21.383Z,17.16
2018-06-30T05:08:21.379Z,17.15
2018-06-30T05:09:21.380Z,17.30
2018-06-30T05:10:21.379Z,17.36
2018-06-30T05:11:21.379Z,17.60
2018-06-30T05:12:21.381Z,17.59
2018-06-30T05:13:21.386Z,17.54
2018-06-30T05:14:21.382Z,17.46
2018-06-30T05:15:21.382Z,17.39
2018-06-30T05:16:21.386Z,17.59
2018-06-30T05:17:21.384Z,17.59
2018-06-30T05:18:21.384Z,17.68
2018-06-30T05:19:21.388Z,17.64
2018-06-30T05:20:21.389Z,17.87
2018-06-30T05:21:21.388Z,18.26
2018-06-30T05:22:21.387Z,18.37
2018-06-30T05:23:21.391Z,18.26
2018-06-30T05:24:21.390Z,18.22
2018-06-30T05:25:21.390Z,18.28
2018-06-30T05:26:21.394Z,18.15
2018-06-30T05:27:21.393Z,18.49
2018-06-30T05:28:21.393Z,18.93
2018-06-30T05:29:21.396Z,18.71
2018-06-30T05:30:21.403Z,18.28
2018-06-30T05:31:21.396Z,17.98
2018-06-30T05:32:21.400Z,17.72
2018-06-30T05:33:21.418Z,17.60
2018-06-30T05:34:21.402Z,17.49
2018-06-30T05:35:21.401Z,17.38
2018-06-30T05:36:21.403Z,17.41
2018-06-30T05:37:21.408Z,17.39
2018-06-30T05:38:21.407Z,17.41
2018-06-30T05:39:21.406Z,17.59
2018-06-30T05:40:21.407Z,17.74
2018-06-30T05:41:21.408Z,17.72
2018-06-30T05:42:21.407Z,17.80
2018-06-30T05:43:21.409Z,17.94
2018-06-30T05:44:21.411Z,17.92
2018-06-30T05:45:21.412Z,18.01
2018-06-30T05:46:21.415Z,18.18
2018-06-30T05:47:21.414Z,18.25
2018-06-30T05:48:21.418Z,18.28
2018-06-30T05:49:21.416Z,18.38
2018-06-30T05:50:21.421Z,18.26
2018-06-30T05:51:21.418Z,18.34
2018-06-30T05:52:21.421Z,18.40
2018-06-30T05:53:21.422Z,18.41
2018-06-30T05:54:21.440Z,18.50
2018-06-30T05:55:21.424Z,18.74
2018-06-30T05:56:21.424Z,18.96
2018-06-30T05:57:21.430Z,19.22
2018-06-30T05:58:21.430Z,19.30
2018-06-30T05:59:21.467Z,19.34
2018-06-30T06:00:21.433Z,19.40
2018-06-30T06:01:21.437Z,19.19
2018-06-30T06:02:21.436Z,19.12
2018-06-30T06:03:21.437Z,19.16
2018-06-30T06:04:21.439Z,19.19
2018-06-30T06:05:21.443Z,19.18
2018-06-30T06:06:21.442Z,19.08
2018-06-30T06:07:21.444Z,18.98
2018-06-30T06:08:21.447Z,18.86
2018-06-30T06:09:21.471Z,18.84
2018-06-30T06:10:21.463Z,18.80
2018-06-30T06:11:21.452Z,18.80
2018-06-30T06:12:21.453Z,18.89
2018-06-30T06:13:21.457Z,18.93
2018-06-30T06:14:21.456Z,19.08
2018-06-30T06:15:21.537Z,19.31
2018-06-30T06:16:21.461Z,19.73
2018-06-30T06:17:21.467Z,19.82
2018-06-30T06:18:21.464Z,19.88
2018-06-30T06:19:21.466Z,19.92
2018-06-30T06:20:21.469Z,20.06
2018-06-30T06:21:21.471Z,19.70
2018-06-30T06:22:21.477Z,19.45
2018-06-30T06:23:21.525Z,19.27
2018-06-30T06:24:21.479Z,19.29
2018-06-30T06:25:21.501Z,19.19
2018-06-30T06:26:21.482Z,19.14
2018-06-30T06:27:21.484Z,19.15
2018-06-30T06:28:21.492Z,19.29
2018-06-30T06:29:21.488Z,19.31
2018-06-30T06:30:21.491Z,19.41
2018-06-30T06:31:21.498Z,19.54
2018-06-30T06:32:21.539Z,19.69
2018-06-30T06:33:21.498Z,19.67
2018-06-30T06:34:21.499Z,19.84
2018-06-30T06:35:21.501Z,19.86
2018-06-30T06:36:21.504Z,19.89
2018-06-30T06:37:21.506Z,19.84
2018-06-30T06:38:21.509Z,19.69
2018-06-30T06:39:21.515Z,19.63
2018-06-30T06:40:21.515Z,19.52
2018-06-30T06:41:21.516Z,19.39
2018-06-30T06:42:21.518Z,19.31
2018-06-30T06:43:21.561Z,19.18
2018-06-30T06:44:21.524Z,19.16
2018-06-30T06:45:21.529Z,19.15
2018-06-30T06:46:21.531Z,19.29
2018-06-30T06:47:21.532Z,19.31
2018-06-30T06:48:21.533Z,19.26
2018-06-30T06:49:21.534Z,19.34
2018-06-30T06:50:21.536Z,19.40
2018-06-30T06:51:21.538Z,19.37
2018-06-30T06:52:21.541Z,19.37
2018-06-30T06:53:21.546Z,19.48
2018-06-30T06:54:21.544Z,19.48
2018-06-30T06:55:21.547Z,19.45
2018-06-30T06:56:21.598Z,19.33
2018-06-30T06:57:21.551Z,19.31
2018-06-30T06:58:21.553Z,19.48
2018-06-30T06:59:21.556Z,19.47
2018-06-30T07:00:21.557Z,19.58
2018-06-30T07:01:21.560Z,19.70
2018-06-30T07:02:21.564Z,19.64
2018-06-30T07:03:21.562Z,19.67
2018-06-30T07:04:21.567Z,19.69
2018-06-30T07:05:21.570Z,19.74
2018-06-30T07:06:21.570Z,19.69
2018-06-30T07:07:21.582Z,19.69
2018-06-30T07:08:21.576Z,19.58
2018-06-30T07:09:21.577Z,19.62
2018-06-30T07:10:21.580Z,19.56
2018-06-30T07:11:21.582Z,19.49
2018-06-30T07:12:21.582Z,19.51
2018-06-30T07:13:21.585Z,19.47
2018-06-30T07:14:21.586Z,19.51
2018-06-30T07:15:21.593Z,19.59
2018-06-30T07:16:21.591Z,19.55
2018-06-30T07:17:21.593Z,19.66
2018-06-30T07:18:21.594Z,19.74
2018-06-30T07:19:21.632Z,19.71
2018-06-30T07:20:21.599Z,19.76
2018-06-30T07:21:21.608Z,19.84
2018-06-30T07:22:21.785Z,19.82
2018-06-30T07:23:21.607Z,19.85
2018-06-30T07:24:21.610Z,19.79
2018-06-30T07:25:21.609Z,19.82
2018-06-30T07:26:21.615Z,19.69
2018-06-30T07:27:21.611Z,19.79
2018-06-30T07:28:21.616Z,19.66
2018-06-30T07:29:21.623Z,19.70
2018-06-30T07:30:21.618Z,19.69
2018-06-30T07:31:21.621Z,19.69
2018-06-30T07:32:21.655Z,19.70
2018-06-30T07:33:21.625Z,19.69
2018-06-30T07:34:21.625Z,19.69
2018-06-30T07:35:21.628Z,19.64
2018-06-30T07:36:21.630Z,19.67
2018-06-30T07:37:21.643Z,19.58
2018-06-30T07:38:21.634Z,19.63
2018-06-30T07:39:21.636Z,19.62
2018-06-30T07:40:21.666Z,19.56
2018-06-30T07:41:21.642Z,19.66
2018-06-30T07:42:21.640Z,19.73
2018-06-30T07:43:21.664Z,19.73
2018-06-30T07:44:21.645Z,19.76
2018-06-30T07:45:21.648Z,19.70
2018-06-30T07:46:21.647Z,19.70
2018-06-30T07:47:21.653Z,19.67
2018-06-30T07:48:21.654Z,19.56
2018-06-30T07:49:21.656Z,19.56
2018-06-30T07:50:21.736Z,19.55
2018-06-30T07:51:21.658Z,19.66
2018-06-30T07:52:21.667Z,19.71
2018-06-30T07:53:21.662Z,19.76
2018-06-30T07:54:21.666Z,19.81
2018-06-30T07:55:21.664Z,19.82
2018-06-30T07:56:21.685Z,19.89
2018-06-30T07:57:21.695Z,19.92
2018-06-30T07:58:21.678Z,19.89
2018-06-30T07:59:21.671Z,19.95
2018-06-30T08:00:21.677Z,19.86
2018-06-30T08:01:21.675Z,19.84
2018-06-30T08:02:21.676Z,19.89
2018-06-30T08:03:21.678Z,19.86
2018-06-30T08:04:21.688Z,19.86
2018-06-30T08:05:21.686Z,19.84
2018-06-30T08:06:21.740Z,19.77
2018-06-30T08:07:21.752Z,19.85
2018-06-30T08:08:21.687Z,19.82
2018-06-30T08:09:21.689Z,19.67
2018-06-30T08:10:21.690Z,19.79
2018-06-30T08:11:21.697Z,19.70
2018-06-30T08:12:21.695Z,19.70
2018-06-30T08:13:21.696Z,19.69
2018-06-30T08:14:21.698Z,19.71
2018-06-30T08:15:21.700Z,19.84
2018-06-30T08:16:21.710Z,19.85
2018-06-30T08:17:21.705Z,19.77
2018-06-30T08:18:21.707Z,19.81
2018-06-30T08:19:21.708Z,19.89
2018-06-30T08:20:21.710Z,19.88
2018-06-30T08:21:21.711Z,19.86
2018-06-30T08:22:21.712Z,19.94
2018-06-30T08:23:21.713Z,19.94
2018-06-30T08:24:21.715Z,19.92
2018-06-30T08:25:21.717Z,19.96
2018-06-30T08:26:21.718Z,19.91
2018-06-30T08:27:21.722Z,19.89
2018-06-30T08:28:21.722Z,19.88
2018-06-30T08:29:21.725Z,19.82
2018-06-30T08:30:21.730Z,19.84
2018-06-30T08:31:21.733Z,19.85
2018-06-30T08:32:21.747Z,20.03
2018-06-30T08:33:21.733Z,20.47
2018-06-30T08:34:21.735Z,21.21
2018-06-30T08:35:21.788Z,21.98
2018-06-30T08:36:21.774Z,22.59
2018-06-30T08:37:21.741Z,22.99
2018-06-30T08:38:21.743Z,23.15
2018-06-30T08:39:21.745Z,23.43
2018-06-30T08:40:21.752Z,24.01
2018-06-30T08:41:21.752Z,24.13
2018-06-30T08:42:21.754Z,24.29
2018-06-30T08:43:21.757Z,24.81
2018-06-30T08:44:21.763Z,25.32
2018-06-30T08:45:21.766Z,25.73
2018-06-30T08:46:21.775Z,26.06
2018-06-30T08:47:21.784Z,26.53
2018-06-30T08:48:21.808Z,26.48
2018-06-30T08:49:21.790Z,26.45
2018-06-30T08:50:21.788Z,26.47
2018-06-30T08:51:21.793Z,26.18
2018-06-30T08:52:21.803Z,26.47
2018-06-30T08:53:21.812Z,26.06
2018-06-30T08:54:21.812Z,25.95
2018-06-30T08:55:21.873Z,26.05
2018-06-30T08:56:21.824Z,26.02
2018-06-30T08:57:21.825Z,26.09
2018-06-30T08:58:21.833Z,26.31
2018-06-30T08:59:21.836Z,26.66
2018-06-30T09:00:21.843Z,26.70
2018-06-30T09:01:21.856Z,26.89
2018-06-30T09:02:21.855Z,27.18
2018-06-30T09:03:21.862Z,27.02
2018-06-30T09:04:21.869Z,26.73
2018-06-30T09:05:21.879Z,26.99
2018-06-30T09:06:21.965Z,27.49
2018-06-30T09:07:21.889Z,27.67
2018-06-30T09:08:21.894Z,27.74
2018-06-30T09:09:21.899Z,28.08
2018-06-30T09:10:21.906Z,28.15
2018-06-30T09:11:21.916Z,28.47
2018-06-30T09:12:22.010Z,28.52
2018-06-30T09:13:21.928Z,28.29
2018-06-30T09:14:21.937Z,28.85
2018-06-30T09:15:21.941Z,29.04
2018-06-30T09:16:21.951Z,29.24
2018-06-30T09:17:21.957Z,29.71
2018-06-30T09:18:21.969Z,29.63
2018-06-30T09:19:21.974Z,29.16
2018-06-30T09:20:21.987Z,29.22
2018-06-30T09:21:22.005Z,29.12
2018-06-30T09:22:21.993Z,28.94
2018-06-30T09:23:22.024Z,29.01
2018-06-30T09:24:22.010Z,29.51
2018-06-30T09:25:22.017Z,29.71
2018-06-30T09:26:22.024Z,29.56
2018-06-30T09:27:22.032Z,29.86
2018-06-30T09:28:22.041Z,30.47
2018-06-30T09:29:22.050Z,30.77
2018-06-30T09:30:22.056Z,30.80
2018-06-30T09:31:22.068Z,31.17
2018-06-30T09:32:22.075Z,31.37
2018-06-30T09:33:22.083Z,31.56
2018-06-30T09:34:22.091Z,31.76
2018-06-30T09:35:22.100Z,31.69
2018-06-30T09:36:22.115Z,31.46
2018-06-30T09:37:22.120Z,31.12
2018-06-30T09:38:22.133Z,30.85
2018-06-30T09:39:22.140Z,31.07
2018-06-30T09:40:22.147Z,31.06
2018-06-30T09:41:22.155Z,31.49
2018-06-30T09:42:22.168Z,32.04
2018-06-30T09:43:22.192Z,31.81
2018-06-30T09:44:22.243Z,31.17
2018-06-30T09:45:22.194Z,30.78
2018-06-30T09:46:22.207Z,30.12
2018-06-30T09:47:22.212Z,30.55
2018-06-30T09:48:22.221Z,31.17
2018-06-30T09:49:22.230Z,31.46
2018-06-30T09:50:22.251Z,31.47
2018-06-30T09:51:22.250Z,31.54
2018-06-30T09:52:22.257Z,31.56
2018-06-30T09:53:22.268Z,32.49
2018-06-30T09:54:22.277Z,31.90
2018-06-30T09:55:22.287Z,31.74
2018-06-30T09:56:22.303Z,31.05
2018-06-30T09:57:22.317Z,30.73
2018-06-30T09:58:22.318Z,30.43
2018-06-30T09:59:22.325Z,30.12
2018-06-30T10:00:22.335Z,30.02
2018-06-30T10:01:22.351Z,29.94
2018-06-30T10:02:22.355Z,30.51
2018-06-30T10:03:22.369Z,30.43
2018-06-30T10:04:22.375Z,30.66
2018-06-30T10:05:22.387Z,30.97
2018-06-30T10:06:22.393Z,31.14
2018-06-30T10:07:22.424Z,31.21
2018-06-30T10:08:22.413Z,31.77
2018-06-30T10:09:22.424Z,31.97
2018-06-30T10:10:22.432Z,32.37
2018-06-30T10:11:22.478Z,32.97
2018-06-30T10:12:22.457Z,33.20
2018-06-30T10:13:22.468Z,33.15
2018-06-30T10:14:22.472Z,33.00
2018-06-30T10:15:22.483Z,33.19
2018-06-30T10:16:22.498Z,33.08
2018-06-30T10:17:22.506Z,32.52
2018-06-30T10:18:22.538Z,32.41
2018-06-30T10:19:22.535Z,32.14
2018-06-30T10:20:22.537Z,31.55
2018-06-30T10:21:22.549Z,31.34
2018-06-30T10:22:22.556Z,30.78
2018-06-30T10:23:22.574Z,30.24
2018-06-30T10:24:22.581Z,30.06
2018-06-30T10:25:22.614Z,30.06
2018-06-30T10:26:22.608Z,30.43
2018-06-30T10:27:22.607Z,30.55
2018-06-30T10:28:22.624Z,30.80
2018-06-30T10:29:22.629Z,30.85
2018-06-30T10:30:22.641Z,31.58
2018-06-30T10:31:22.716Z,31.42
2018-06-30T10:32:22.674Z,31.20
2018-06-30T10:33:22.676Z,31.29
2018-06-30T10:34:22.680Z,31.36
2018-06-30T10:35:22.689Z,31.24
2018-06-30T10:36:22.701Z,30.94
2018-06-30T10:37:22.756Z,30.96
2018-06-30T10:38:22.719Z,30.92
2018-06-30T10:39:22.731Z,31.05
2018-06-30T10:40:22.756Z,30.84
2018-06-30T10:41:22.752Z,30.84
2018-06-30T10:42:22.762Z,30.83
2018-06-30T10:43:22.779Z,30.96
2018-06-30T10:44:22.795Z,31.15
2018-06-30T10:45:22.796Z,30.85
2018-06-30T10:46:22.803Z,30.83
2018-06-30T10:47:22.813Z,31.24
2018-06-30T10:48:22.824Z,31.44
2018-06-30T10:49:22.846Z,31.46
2018-06-30T10:50:22.845Z,31.81
2018-06-30T10:51:22.855Z,31.56
2018-06-30T10:52:22.867Z,31.55
2018-06-30T10:53:22.876Z,31.58
2018-06-30T10:54:22.886Z,31.54
2018-06-30T10:55:22.918Z,32.29
2018-06-30T10:56:23.020Z,32.65
2018-06-30T10:57:22.923Z,32.26
2018-06-30T10:58:22.932Z,32.12
2018-06-30T10:59:22.940Z,31.94
2018-06-30T11:00:23.050Z,31.20
2018-06-30T11:01:22.965Z,30.83
2018-06-30T11:02:23.046Z,30.77
2018-06-30T11:03:22.992Z,31.20
2018-06-30T11:04:23.087Z,31.24
2018-06-30T11:05:23.713Z,31.55
2018-06-30T11:06:23.032Z,31.27
2018-06-30T11:07:23.028Z,31.15
2018-06-30T11:08:23.046Z,31.51
2018-06-30T11:09:23.050Z,31.89
2018-06-30T11:10:23.060Z,32.19
2018-06-30T11:11:23.072Z,31.25
2018-06-30T11:12:23.087Z,31.31
2018-06-30T11:13:23.715Z,30.85
2018-06-30T11:14:24.117Z,30.34
2018-06-30T11:15:23.115Z,30.40
2018-06-30T11:16:23.125Z,30.75
2018-06-30T11:17:23.136Z,31.36
2018-06-30T11:18:23.146Z,31.65
2018-06-30T11:19:23.159Z,31.61
2018-06-30T11:20:23.168Z,31.37
2018-06-30T11:21:23.182Z,31.28
2018-06-30T11:22:23.872Z,31.33
2018-06-30T11:23:24.011Z,31.87
2018-06-30T11:24:23.540Z,31.54
2018-06-30T11:25:23.223Z,31.87
2018-06-30T11:26:23.243Z,32.36
2018-06-30T11:27:23.246Z,32.37
2018-06-30T11:28:23.263Z,32.46
2018-06-30T11:29:23.355Z,32.01
2018-06-30T11:30:23.318Z,31.69
2018-06-30T11:31:23.575Z,30.91
2018-06-30T11:32:23.298Z,31.02
2018-06-30T11:33:23.310Z,31.46
2018-06-30T11:34:23.318Z,31.24
2018-06-30T11:35:23.331Z,31.12
2018-06-30T11:36:23.347Z,31.17
2018-06-30T11:37:23.357Z,31.55
2018-06-30T11:38:23.365Z,31.46
2018-06-30T11:39:23.376Z,30.85
2018-06-30T11:40:23.387Z,30.84
2018-06-30T11:41:23.396Z,31.09
2018-06-30T11:42:23.407Z,31.44
2018-06-30T11:43:23.417Z,32.12
2018-06-30T11:44:23.428Z,32.68
2018-06-30T11:45:23.440Z,32.97
2018-06-30T11:46:23.456Z,33.00
2018-06-30T11:47:23.461Z,32.36
2018-06-30T11:48:23.473Z,32.14
2018-06-30T11:49:23.485Z,32.00
2018-06-30T11:50:23.538Z,32.21
2018-06-30T11:51:23.509Z,31.73
2018-06-30T11:52:23.527Z,31.58
2018-06-30T11:53:23.530Z,31.93
2018-06-30T11:54:23.538Z,32.21
2018-06-30T11:55:23.549Z,32.77
2018-06-30T11:56:23.562Z,32.96
2018-06-30T11:57:23.574Z,32.96
2018-06-30T11:58:23.583Z,32.51
2018-06-30T11:59:23.602Z,32.22
2018-06-30T12:00:23.605Z,32.14
2018-06-30T12:01:23.640Z,32.58
2018-06-30T12:02:23.627Z,33.20
2018-06-30T12:03:23.671Z,33.04
2018-06-30T12:04:24.739Z,32.45
2018-06-30T12:05:23.665Z,31.93
2018-06-30T12:06:23.673Z,31.89
2018-06-30T12:07:23.690Z,32.21
2018-06-30T12:08:23.695Z,32.30
2018-06-30T12:09:23.818Z,32.30
2018-06-30T12:10:23.719Z,32.27
2018-06-30T12:11:23.730Z,32.00
2018-06-30T12:12:23.740Z,31.76
2018-06-30T12:13:23.755Z,31.51
2018-06-30T12:14:23.764Z,31.36
2018-06-30T12:15:23.776Z,31.51
2018-06-30T12:16:23.786Z,32.12
2018-06-30T12:17:23.797Z,32.51
2018-06-30T12:18:23.809Z,32.67
2018-06-30T12:19:23.819Z,32.97
2018-06-30T12:20:23.831Z,33.23
2018-06-30T12:21:23.847Z,33.02
2018-06-30T12:22:23.852Z,32.86
2018-06-30T12:23:23.864Z,32.83
2018-06-30T12:24:23.874Z,32.75
2018-06-30T12:25:23.889Z,32.73
2018-06-30T12:26:23.903Z,32.64
2018-06-30T12:27:23.907Z,32.52
2018-06-30T12:28:23.925Z,32.22
2018-06-30T12:29:23.932Z,31.74
2018-06-30T12:30:23.945Z,31.46
2018-06-30T12:31:23.952Z,31.49
2018-06-30T12:32:24.122Z,31.59
2018-06-30T12:33:23.977Z,31.70
2018-06-30T12:34:23.985Z,31.87
2018-06-30T12:35:23.996Z,32.12
2018-06-30T12:36:24.007Z,32.37
2018-06-30T12:37:24.052Z,32.37
2018-06-30T12:38:24.033Z,32.77
2018-06-30T12:39:24.039Z,33.07
2018-06-30T12:40:24.052Z,33.61
2018-06-30T12:41:24.062Z,34.03
2018-06-30T12:42:24.072Z,34.32
2018-06-30T12:43:24.093Z,34.58
2018-06-30T12:44:24.097Z,34.51
2018-06-30T12:45:24.107Z,34.48
2018-06-30T12:46:24.118Z,33.65
2018-06-30T12:47:24.129Z,32.75
2018-06-30T12:48:24.141Z,32.53
2018-06-30T12:49:24.155Z,32.67
2018-06-30T12:50:24.164Z,33.04
2018-06-30T12:51:24.174Z,33.49
2018-06-30T12:52:24.186Z,33.27